createdAt,value
2023-03-28T00:01:03.153Z,-24072.46
2023-03-28T00:03:36.025Z,-24072.06
2023-03-28T00:08:16.505Z,-24072.06
2023-03-28T00:10:45.470Z,-24070.59
2023-03-28T00:13:20.034Z,-24070.09
2023-03-28T00:15:48.575Z,-24069.75
2023-03-28T00:18:17.702Z,-24069.38
2023-03-28T00:20:45.939Z,-24069.25
2023-03-28T00:23:15.844Z,-24069.03
2023-03-28T00:25:43.896Z,-24068.78
2023-03-28T00:28:15.477Z,-24068.38
2023-03-28T00:30:43.788Z,-24068.16
2023-03-28T00:33:12.352Z,-24068.00
2023-03-28T00:35:41.035Z,-24067.63
2023-03-28T00:38:09.986Z,-24067.41
2023-03-28T00:40:38.815Z,-24067.72
2023-03-28T00:43:12.955Z,-24068.03
2023-03-28T00:45:42.336Z,-24067.84
2023-03-28T00:48:16.693Z,-24067.91
2023-03-28T00:50:49.684Z,-24068.03
2023-03-28T00:53:21.572Z,-24067.94
2023-03-28T00:55:51.297Z,-24068.22
2023-03-28T00:58:23.382Z,-24068.31
2023-03-28T01:00:55.009Z,-24068.03
2023-03-28T01:03:29.121Z,-24068.06
2023-03-28T01:05:57.574Z,-24067.72
2023-03-28T01:08:35.195Z,-24067.57
2023-03-28T01:11:03.598Z,-24067.60
2023-03-28T01:13:34.179Z,-24068.00
2023-03-28T01:16:03.193Z,-24068.03
2023-03-28T01:18:34.931Z,-24067.75
2023-03-28T01:21:09.092Z,-24067.72
2023-03-28T01:23:45.160Z,-24067.75
2023-03-28T01:26:41.392Z,-24067.35
2023-03-28T01:29:47.486Z,-24066.66
2023-03-28T01:32:50.730Z,-24065.82
2023-03-28T01:35:44.869Z,-24065.01
2023-03-28T01:38:34.513Z,-24064.17
2023-03-28T01:41:09.039Z,-24063.63
2023-03-28T01:43:59.384Z,-24063.14
2023-03-28T01:46:32.847Z,-24061.95
2023-03-28T01:49:10.361Z,-24060.68
2023-03-28T01:52:13.274Z,-24059.21
2023-03-28T01:55:05.830Z,-24057.78
2023-03-28T01:57:52.653Z,-24057.15
2023-03-28T02:00:24.011Z,-24055.84
2023-03-28T02:03:19.064Z,-24053.91
2023-03-28T02:06:08.586Z,-24052.46
2023-03-28T02:08:39.648Z,-24051.37
2023-03-28T02:11:25.064Z,-24050.22
2023-03-28T02:14:31.051Z,-24049.09
2023-03-28T02:17:21.528Z,-24048.69
2023-03-28T02:20:15.178Z,-24048.50
2023-03-28T02:23:31.586Z,-24048.72
2023-03-28T02:26:13.397Z,-24048.75
2023-03-28T02:29:09.032Z,-24048.53
2023-03-28T02:31:46.640Z,-24048.13
2023-03-28T02:34:14.812Z,-24047.32
2023-03-28T02:36:57.484Z,-24046.41
2023-03-28T02:39:38.216Z,-24044.91
2023-03-28T02:42:35.285Z,-24041.70
2023-03-28T02:45:34.565Z,-24037.33
2023-03-28T02:48:14.354Z,-24033.52
2023-03-28T02:51:11.345Z,-24031.21
2023-03-28T02:53:51.264Z,-24029.53
2023-03-28T02:56:41.402Z,-24028.24
2023-03-28T02:59:17.570Z,-24026.87
2023-03-28T03:01:46.620Z,-24026.09
2023-03-28T03:04:17.517Z,-24026.09
2023-03-28T03:06:45.926Z,-24026.12
2023-03-28T03:09:14.603Z,-24026.28
2023-03-28T03:11:44.034Z,-24026.00
2023-03-28T03:14:12.677Z,-24026.28
2023-03-28T03:16:43.353Z,-24026.81
2023-03-28T03:19:12.323Z,-24026.81
2023-03-28T03:21:41.677Z,-24026.59
2023-03-28T03:24:14.461Z,-24026.53
2023-03-28T03:26:44.132Z,-24026.62
2023-03-28T03:29:18.091Z,-24026.50
2023-03-28T03:31:46.835Z,-24026.24
2023-03-28T03:34:21.041Z,-24025.96
2023-03-28T03:36:56.398Z,-24025.62
2023-03-28T03:39:25.338Z,-24025.78
2023-03-28T03:41:53.589Z,-24025.93
2023-03-28T03:44:21.776Z,-24026.06
2023-03-28T03:46:50.179Z,-24026.09
2023-03-28T03:49:18.308Z,-24026.28
2023-03-28T03:51:48.034Z,-24026.34
2023-03-28T03:54:18.159Z,-24026.68
2023-03-28T03:56:46.630Z,-24026.71
2023-03-28T03:59:16.205Z,-24026.37
2023-03-28T04:01:51.344Z,-24025.71
2023-03-28T04:04:40.559Z,-24025.06
2023-03-28T04:07:20.640Z,-24025.03
2023-03-28T04:09:50.021Z,-24025.03
2023-03-28T04:12:19.419Z,-24025.00
2023-03-28T04:14:50.308Z,-24024.78
2023-03-28T04:17:41.956Z,-24024.06
2023-03-28T04:20:14.285Z,-24023.59
2023-03-28T04:23:06.179Z,-24023.53
2023-03-28T04:25:35.429Z,-24023.47
2023-03-28T04:28:16.388Z,-24023.25
2023-03-28T04:30:59.720Z,-24022.97
2023-03-28T04:33:46.522Z,-24022.94
2023-03-28T04:36:17.081Z,-24022.59
2023-03-28T04:38:47.151Z,-24022.59
2023-03-28T04:41:22.745Z,-24022.46
2023-03-28T04:44:10.822Z,-24022.53
2023-03-28T04:46:46.677Z,-24022.78
2023-03-28T04:49:15.386Z,-24022.68
2023-03-28T04:51:46.411Z,-24022.28
2023-03-28T04:54:15.425Z,-24022.09
2023-03-28T04:57:05.041Z,-24022.56
2023-03-28T04:59:45.138Z,-24022.19
2023-03-28T05:02:20.022Z,-24021.40
2023-03-28T05:05:07.731Z,-24021.12
2023-03-28T05:07:37.404Z,-24020.90
2023-03-28T05:10:06.446Z,-24020.72
2023-03-28T05:12:38.719Z,-24020.78
2023-03-28T05:15:07.501Z,-24020.22
2023-03-28T05:17:46.172Z,-24019.69
2023-03-28T05:20:36.667Z,-24018.56
2023-03-28T05:23:06.366Z,-24017.56
2023-03-28T05:25:36.725Z,-24017.16
2023-03-28T05:28:05.174Z,-24016.75
2023-03-28T05:30:33.794Z,-24016.06
2023-03-28T05:33:04.261Z,-24015.00
2023-03-28T05:35:32.679Z,-24014.06
2023-03-28T05:38:01.314Z,-24012.94
2023-03-28T05:40:31.749Z,-24011.97
2023-03-28T05:42:59.994Z,-24011.13
2023-03-28T05:45:28.334Z,-24010.50
2023-03-28T05:48:29.332Z,-24008.97
2023-03-28T05:51:02.862Z,-24007.84
2023-03-28T05:53:32.029Z,-24006.85
2023-03-28T05:56:00.601Z,-24006.79
2023-03-28T05:58:29.752Z,-24006.72
2023-03-28T06:00:58.287Z,-24006.72
2023-03-28T06:03:32.379Z,-24006.53
2023-03-28T06:06:05.777Z,-24006.34
2023-03-28T06:08:34.054Z,-24005.63
2023-03-28T06:11:04.096Z,-24005.38
2023-03-28T06:13:46.739Z,-24005.10
2023-03-28T06:16:15.628Z,-24004.41
2023-03-28T06:18:44.604Z,-24003.60
2023-03-28T06:21:12.800Z,-24002.44
2023-03-28T06:23:43.380Z,-24001.07
2023-03-28T06:26:20.793Z,-24000.03
2023-03-28T06:28:48.940Z,-23999.69
2023-03-28T06:31:23.103Z,-23999.07
2023-03-28T06:33:51.508Z,-23998.63
2023-03-28T06:36:22.561Z,-23997.91
2023-03-28T06:38:52.476Z,-23996.78
2023-03-28T06:41:22.566Z,-23996.53
2023-03-28T06:43:50.999Z,-23997.07
2023-03-28T06:46:50.608Z,-23998.00
2023-03-28T06:49:19.857Z,-23999.22
2023-03-28T06:52:08.436Z,-24000.47
2023-03-28T06:54:37.669Z,-24001.63
2023-03-28T06:57:06.176Z,-24002.75
2023-03-28T06:59:36.165Z,-24004.69
2023-03-28T07:02:06.999Z,-24006.97
2023-03-28T07:04:40.879Z,-24009.38
2023-03-28T07:07:09.925Z,-24011.47
2023-03-28T07:09:38.361Z,-24014.25
2023-03-28T07:12:09.795Z,-24017.16
2023-03-28T07:14:40.696Z,-24020.44
2023-03-28T07:17:08.881Z,-24024.00
2023-03-28T07:19:38.081Z,-24027.71
2023-03-28T07:22:07.116Z,-24031.68
2023-03-28T07:24:37.297Z,-24035.36
2023-03-28T07:27:15.434Z,-24038.64
2023-03-28T07:29:46.208Z,-24041.92
2023-03-28T07:32:16.937Z,-24044.69
2023-03-28T07:34:46.711Z,-24046.88
2023-03-28T07:37:19.951Z,-24048.41
2023-03-28T07:39:58.668Z,-24049.31
2023-03-28T07:42:27.559Z,-24050.75
2023-03-28T07:44:56.374Z,-24052.56
2023-03-28T07:47:25.556Z,-24053.88
2023-03-28T07:49:54.486Z,-24054.59
2023-03-28T07:52:24.560Z,-24055.28
2023-03-28T07:54:54.082Z,-24055.62
2023-03-28T07:57:22.626Z,-24056.40
2023-03-28T07:59:56.356Z,-24057.25
2023-03-28T08:02:25.543Z,-24058.15
2023-03-28T08:04:56.081Z,-24059.21
2023-03-28T08:07:27.331Z,-24060.61
2023-03-28T08:09:58.425Z,-24061.80
2023-03-28T08:12:29.892Z,-24062.61
2023-03-28T08:15:18.027Z,-24062.48
2023-03-28T08:17:47.079Z,-24061.95
2023-03-28T08:20:21.515Z,-24061.20
2023-03-28T08:23:12.738Z,-24060.61
2023-03-28T08:26:13.928Z,-24060.27
2023-03-28T08:28:45.815Z,-24060.17
2023-03-28T08:31:15.570Z,-24060.58
2023-03-28T08:33:48.696Z,-24060.74
2023-03-28T08:36:17.500Z,-24060.33
2023-03-28T08:38:46.753Z,-24059.89
2023-03-28T08:41:21.955Z,-24059.08
2023-03-28T08:44:23.094Z,-24057.27
2023-03-28T08:47:00.247Z,-24055.18
2023-03-28T08:49:28.577Z,-24051.88
2023-03-28T08:51:59.228Z,-24048.44
2023-03-28T08:54:37.196Z,-24045.88
2023-03-28T08:57:05.413Z,-24043.11
2023-03-28T08:59:40.692Z,-24039.39
2023-03-28T09:02:17.757Z,-24035.68
2023-03-28T09:04:48.126Z,-24032.96
2023-03-28T09:07:18.867Z,-24030.52
2023-03-28T09:09:53.440Z,-24027.15
2023-03-28T09:12:36.569Z,-24023.21
2023-03-28T09:15:19.550Z,-24020.25
2023-03-28T09:18:28.902Z,-24018.84
2023-03-28T09:21:23.160Z,-24017.47
2023-03-28T09:24:21.031Z,-24016.28
2023-03-28T09:27:26.017Z,-24014.59
2023-03-28T09:29:57.169Z,-24012.84
2023-03-28T09:32:28.593Z,-24011.13
2023-03-28T09:34:57.750Z,-24010.04
2023-03-28T09:37:31.356Z,-24009.22
2023-03-28T09:40:01.988Z,-24008.09
2023-03-28T09:42:48.364Z,-24006.75
2023-03-28T09:45:36.419Z,-24004.84
2023-03-28T09:48:30.011Z,-24002.94
2023-03-28T09:51:01.816Z,-24000.07
2023-03-28T09:53:33.219Z,-23998.06
2023-03-28T09:56:18.352Z,-23997.22
2023-03-28T09:58:47.007Z,-23996.06
2023-03-28T10:01:50.913Z,-23994.62
2023-03-28T10:04:31.430Z,-23993.09
2023-03-28T10:07:33.862Z,-23991.46
2023-03-28T10:10:19.235Z,-23989.30
2023-03-28T10:12:59.291Z,-23986.58
2023-03-28T10:15:33.529Z,-23984.83
2023-03-28T10:18:18.555Z,-23983.39
2023-03-28T10:20:48.722Z,-23982.17
2023-03-28T10:23:18.181Z,-23980.77
2023-03-28T10:25:46.499Z,-23979.89
2023-03-28T10:28:35.987Z,-23979.33
2023-03-28T10:31:04.720Z,-23978.80
2023-03-28T10:33:57.556Z,-23978.83
2023-03-28T10:36:50.499Z,-23978.04
2023-03-28T10:39:29.403Z,-23977.23
2023-03-28T10:42:42.311Z,-23976.20
2023-03-28T10:45:44.287Z,-23975.82
2023-03-28T10:48:18.823Z,-23975.73
2023-03-28T10:50:49.327Z,-23976.04
2023-03-28T10:53:19.032Z,-23976.20
2023-03-28T10:56:16.759Z,-23976.54
2023-03-28T10:59:14.700Z,-23978.11
2023-03-28T11:02:07.742Z,-23978.95
2023-03-28T11:04:52.419Z,-23978.17
2023-03-28T11:07:25.433Z,-23978.67
2023-03-28T11:10:23.958Z,-23979.20
2023-03-28T11:13:26.889Z,-23979.33
2023-03-28T11:16:04.653Z,-23979.23
2023-03-28T11:19:16.102Z,-23979.11
2023-03-28T11:22:47.614Z,-23979.17
2023-03-28T11:25:49.380Z,-23978.70
2023-03-28T11:28:45.259Z,-23977.95
2023-03-28T11:31:32.276Z,-23977.67
2023-03-28T11:34:22.042Z,-23977.89
2023-03-28T11:36:58.646Z,-23977.92
2023-03-28T11:39:33.476Z,-23977.79
2023-03-28T11:42:05.007Z,-23977.45
2023-03-28T11:45:07.918Z,-23976.82
2023-03-28T11:47:41.960Z,-23976.07
2023-03-28T11:50:18.736Z,-23975.60
2023-03-28T11:53:18.805Z,-23975.63
2023-03-28T11:56:03.058Z,-23975.95
2023-03-28T11:58:56.632Z,-23976.79
2023-03-28T12:01:27.220Z,-23977.23
2023-03-28T12:03:56.316Z,-23977.17
2023-03-28T12:06:52.196Z,-23977.33
2023-03-28T12:09:42.900Z,-23977.82
2023-03-28T12:12:25.845Z,-23978.73
2023-03-28T12:15:00.639Z,-23979.77
2023-03-28T12:18:01.046Z,-23980.17
2023-03-28T12:20:38.875Z,-23980.67
2023-03-28T12:23:24.020Z,-23981.23
2023-03-28T12:26:31.494Z,-23982.43
2023-03-28T12:29:10.603Z,-23982.71
2023-03-28T12:31:51.161Z,-23982.77
2023-03-28T12:34:32.047Z,-23983.39
2023-03-28T12:37:41.478Z,-23983.67
2023-03-28T12:40:13.497Z,-23984.58
2023-03-28T12:42:41.967Z,-23986.05
2023-03-28T12:45:16.572Z,-23987.08
2023-03-28T12:47:52.801Z,-23987.68
2023-03-28T12:50:43.386Z,-23987.49
2023-03-28T12:53:11.824Z,-23987.71
2023-03-28T12:55:44.579Z,-23988.14
2023-03-28T12:58:21.500Z,-23988.83
2023-03-28T13:01:07.902Z,-23989.15
2023-03-28T13:03:53.468Z,-23989.80
2023-03-28T13:06:32.865Z,-23989.62
2023-03-28T13:09:02.011Z,-23989.34
2023-03-28T13:11:55.284Z,-23989.02
2023-03-28T13:14:42.361Z,-23989.15
2023-03-28T13:17:24.078Z,-23989.30
2023-03-28T13:19:52.203Z,-23989.65
2023-03-28T13:22:35.140Z,-23990.02
2023-03-28T13:25:26.003Z,-23990.11
2023-03-28T13:28:14.177Z,-23990.18
2023-03-28T13:30:46.319Z,-23990.24
2023-03-28T13:33:32.240Z,-23990.21
2023-03-28T13:36:00.641Z,-23989.65
2023-03-28T13:38:29.177Z,-23988.77
2023-03-28T13:41:01.426Z,-23987.71
2023-03-28T13:43:56.730Z,-23984.52
2023-03-28T13:46:55.324Z,-23980.95
2023-03-28T13:49:29.661Z,-23977.39
2023-03-28T13:52:04.995Z,-23975.10
2023-03-28T13:54:33.185Z,-23973.82
2023-03-28T13:57:13.210Z,-23972.73
2023-03-28T13:59:56.116Z,-23972.22
2023-03-28T14:02:45.230Z,-23971.16
2023-03-28T14:05:27.294Z,-23964.84
2023-03-28T14:08:02.013Z,-23950.63
2023-03-28T14:10:36.110Z,-23932.02
2023-03-28T14:13:14.832Z,-23915.78
2023-03-28T14:15:43.682Z,-23905.40
2023-03-28T14:18:30.597Z,-23897.84
2023-03-28T14:21:00.528Z,-23890.65
2023-03-28T14:23:29.948Z,-23885.44
2023-03-28T14:26:01.039Z,-23878.54
2023-03-28T14:28:29.934Z,-23870.91
2023-03-28T14:30:59.301Z,-23863.87
2023-03-28T14:33:34.295Z,-23858.19
2023-03-28T14:36:04.143Z,-23851.90
2023-03-28T14:38:35.305Z,-23846.25
2023-03-28T14:41:27.707Z,-23841.28
2023-03-28T14:43:57.876Z,-23836.50
2023-03-28T14:46:30.468Z,-23832.76
2023-03-28T14:49:01.369Z,-23830.25
2023-03-28T14:51:42.453Z,-23827.13
2023-03-28T14:54:15.731Z,-23824.27
2023-03-28T14:56:44.998Z,-23821.69
2023-03-28T14:59:16.249Z,-23819.64
2023-03-28T15:01:44.463Z,-23816.34
2023-03-28T15:04:13.141Z,-23813.48
2023-03-28T15:06:41.854Z,-23809.70
2023-03-28T15:09:25.650Z,-23805.87
2023-03-28T15:12:05.434Z,-23803.19
2023-03-28T15:14:52.343Z,-23800.83
2023-03-28T15:17:20.991Z,-23798.12
2023-03-28T15:19:51.365Z,-23796.52
2023-03-28T15:22:22.583Z,-23795.07
2023-03-28T15:24:52.425Z,-23792.14
2023-03-28T15:27:34.023Z,-23789.34
2023-03-28T15:30:08.777Z,-23787.92
2023-03-28T15:32:47.261Z,-23786.41
2023-03-28T15:35:40.984Z,-23784.99
2023-03-28T15:38:29.604Z,-23783.39
2023-03-28T15:41:18.486Z,-23781.69
2023-03-28T15:43:52.745Z,-23780.18
2023-03-28T15:46:32.526Z,-23778.63
2023-03-28T15:49:01.322Z,-23776.80
2023-03-28T15:51:29.944Z,-23775.04
2023-03-28T15:54:00.174Z,-23774.13
2023-03-28T15:56:30.007Z,-23773.43
2023-03-28T15:59:03.085Z,-23771.92
2023-03-28T16:01:32.865Z,-23770.22
2023-03-28T16:04:24.164Z,-23769.40
2023-03-28T16:07:13.138Z,-23768.11
2023-03-28T16:09:43.283Z,-23765.30
2023-03-28T16:12:13.380Z,-23764.42
2023-03-28T16:14:49.005Z,-23763.47
2023-03-28T16:17:49.859Z,-23762.47
2023-03-28T16:20:40.659Z,-23760.86
2023-03-28T16:23:09.005Z,-23759.70
2023-03-28T16:25:37.488Z,-23758.62
2023-03-28T16:28:05.824Z,-23757.62
2023-03-28T16:30:38.582Z,-23757.46
2023-03-28T16:33:09.701Z,-23756.86
2023-03-28T16:35:38.251Z,-23756.17
2023-03-28T16:38:07.272Z,-23755.79
2023-03-28T16:40:36.591Z,-23755.50
2023-03-28T16:43:04.830Z,-23755.28
2023-03-28T16:45:33.209Z,-23754.43
2023-03-28T16:48:01.977Z,-23753.58
2023-03-28T16:50:30.208Z,-23752.63
2023-03-28T16:52:58.515Z,-23751.53
2023-03-28T16:55:27.302Z,-23750.36
2023-03-28T16:57:56.065Z,-23749.61
2023-03-28T17:00:33.335Z,-23748.63
2023-03-28T17:03:02.319Z,-23747.27
2023-03-28T17:05:30.742Z,-23745.92
2023-03-28T17:07:59.843Z,-23745.51
2023-03-28T17:10:29.471Z,-23743.93
2023-03-28T17:13:02.621Z,-23743.27
2023-03-28T17:15:32.338Z,-23742.80
2023-03-28T17:18:01.526Z,-23741.57
2023-03-28T17:20:31.245Z,-23741.41
2023-03-28T17:23:00.930Z,-23740.68
2023-03-28T17:25:29.533Z,-23740.21
2023-03-28T17:27:59.317Z,-23739.14
2023-03-28T17:30:28.285Z,-23738.44
2023-03-28T17:32:57.471Z,-23737.82
2023-03-28T17:35:25.845Z,-23737.50
2023-03-28T17:37:57.302Z,-23736.17
2023-03-28T17:40:25.681Z,-23735.38
2023-03-28T17:42:53.889Z,-23735.07
2023-03-28T17:45:22.041Z,-23734.57
2023-03-28T17:47:50.727Z,-23733.33
2023-03-28T17:50:20.262Z,-23731.92
2023-03-28T17:52:49.020Z,-23731.25
2023-03-28T17:55:19.064Z,-23730.46
2023-03-28T17:57:49.635Z,-23729.23
2023-03-28T18:00:19.635Z,-23728.04
2023-03-28T18:02:51.143Z,-23726.33
2023-03-28T18:05:30.609Z,-23723.68
2023-03-28T18:07:59.272Z,-23721.32
2023-03-28T18:10:31.966Z,-23719.83
2023-03-28T18:13:00.990Z,-23719.01
2023-03-28T18:15:30.615Z,-23718.19
2023-03-28T18:18:01.903Z,-23717.62
2023-03-28T18:20:30.423Z,-23716.55
2023-03-28T18:23:00.004Z,-23716.11
2023-03-28T18:25:30.287Z,-23715.98
2023-03-28T18:28:00.042Z,-23716.14
2023-03-28T18:30:29.053Z,-23715.79
2023-03-28T18:32:59.136Z,-23715.98
2023-03-28T18:35:27.966Z,-23715.67
2023-03-28T18:37:56.925Z,-23715.54
2023-03-28T18:40:25.393Z,-23714.40
2023-03-28T18:42:54.365Z,-23714.24
2023-03-28T18:45:22.818Z,-23713.96
2023-03-28T18:47:53.744Z,-23713.52
2023-03-28T18:50:22.222Z,-23713.01
2023-03-28T18:52:50.428Z,-23712.73
2023-03-28T18:55:19.366Z,-23712.32
2023-03-28T18:57:47.827Z,-23711.37
2023-03-28T19:00:20.586Z,-23709.95
2023-03-28T19:02:50.560Z,-23708.60
2023-03-28T19:05:19.198Z,-23708.22
2023-03-28T19:07:48.744Z,-23707.74
2023-03-28T19:10:17.500Z,-23707.90
2023-03-28T19:12:46.576Z,-23707.55
2023-03-28T19:15:17.249Z,-23707.46
2023-03-28T19:17:45.885Z,-23707.33
2023-03-28T19:20:15.638Z,-23707.05
2023-03-28T19:22:44.075Z,-23706.00
2023-03-28T19:25:12.698Z,-23705.79
2023-03-28T19:27:41.943Z,-23705.63
2023-03-28T19:30:10.401Z,-23704.78
2023-03-28T19:32:39.427Z,-23704.37
2023-03-28T19:35:08.251Z,-23704.24
2023-03-28T19:37:36.448Z,-23703.70
2023-03-28T19:40:16.544Z,-23704.08
2023-03-28T19:42:44.757Z,-23703.57
2023-03-28T19:45:13.705Z,-23703.36
2023-03-28T19:47:42.047Z,-23703.95
2023-03-28T19:50:11.837Z,-23704.08
2023-03-28T19:52:41.018Z,-23703.10
2023-03-28T19:55:10.495Z,-23702.85
2023-03-28T19:57:38.926Z,-23703.26
2023-03-28T20:00:08.079Z,-23703.10
2023-03-28T20:02:45.353Z,-23703.13
2023-03-28T20:05:14.460Z,-23702.41
2023-03-28T20:07:43.036Z,-23702.18
2023-03-28T20:10:11.590Z,-23702.34
2023-03-28T20:12:41.270Z,-23701.90
2023-03-28T20:15:10.111Z,-23702.53
2023-03-28T20:17:38.491Z,-23702.78
2023-03-28T20:20:09.511Z,-23703.01
2023-03-28T20:22:38.021Z,-23703.32
2023-03-28T20:25:07.336Z,-23703.48
2023-03-28T20:27:36.424Z,-23703.73
2023-03-28T20:30:05.861Z,-23704.20
2023-03-28T20:32:34.307Z,-23705.03
2023-03-28T20:35:02.452Z,-23704.65
2023-03-28T20:37:32.399Z,-23705.31
2023-03-28T20:40:10.714Z,-23705.79
2023-03-28T20:42:42.322Z,-23705.88
2023-03-28T20:45:14.209Z,-23706.73
2023-03-28T20:47:43.059Z,-23706.64
2023-03-28T20:50:11.656Z,-23706.95
2023-03-28T20:52:40.708Z,-23708.25
2023-03-28T20:55:09.562Z,-23708.88
2023-03-28T20:57:48.097Z,-23709.29
2023-03-28T21:00:17.086Z,-23709.89
2023-03-28T21:02:53.724Z,-23710.61
2023-03-28T21:05:25.237Z,-23711.50
2023-03-28T21:07:54.380Z,-23711.82
2023-03-28T21:10:23.288Z,-23712.57
2023-03-28T21:12:51.735Z,-23713.14
2023-03-28T21:15:20.095Z,-23713.23
2023-03-28T21:17:49.611Z,-23714.43
2023-03-28T21:20:18.779Z,-23714.72
2023-03-28T21:22:48.847Z,-23715.32
2023-03-28T21:25:17.351Z,-23715.10
2023-03-28T21:27:48.448Z,-23717.06
2023-03-28T21:30:17.962Z,-23717.71
2023-03-28T21:33:02.157Z,-23718.29
2023-03-28T21:35:32.074Z,-23718.82
2023-03-28T21:38:00.610Z,-23719.42
2023-03-28T21:40:28.740Z,-23720.37
2023-03-28T21:42:57.123Z,-23720.27
2023-03-28T21:45:25.558Z,-23721.09
2023-03-28T21:47:59.191Z,-23721.66
2023-03-28T21:50:31.560Z,-23721.63
2023-03-28T21:52:59.688Z,-23721.98
2023-03-28T21:55:29.219Z,-23722.48
2023-03-28T21:57:58.174Z,-23722.76
2023-03-28T22:00:26.415Z,-23722.99
2023-03-28T22:02:55.708Z,-23723.40
2023-03-28T22:05:29.814Z,-23723.84
2023-03-28T22:07:59.207Z,-23724.09
2023-03-28T22:10:27.620Z,-23724.41
2023-03-28T22:12:58.981Z,-23724.72
2023-03-28T22:15:27.892Z,-23725.01
2023-03-28T22:17:58.393Z,-23725.20
2023-03-28T22:20:35.782Z,-23725.64
2023-03-28T22:23:04.448Z,-23726.11
2023-03-28T22:25:34.924Z,-23726.08
2023-03-28T22:28:04.422Z,-23726.18
2023-03-28T22:30:32.973Z,-23726.14
2023-03-28T22:33:04.057Z,-23726.99
2023-03-28T22:35:33.752Z,-23727.25
2023-03-28T22:38:02.714Z,-23727.43
2023-03-28T22:40:31.209Z,-23727.40
2023-03-28T22:42:59.622Z,-23727.50
2023-03-28T22:45:27.755Z,-23727.94
2023-03-28T22:48:00.541Z,-23728.22
2023-03-28T22:50:29.166Z,-23728.35
2023-03-28T22:52:58.067Z,-23728.54
2023-03-28T22:55:26.585Z,-23728.82
2023-03-28T22:57:55.055Z,-23729.14
2023-03-28T23:00:24.521Z,-23729.52
2023-03-28T23:02:53.587Z,-23729.87
2023-03-28T23:05:21.798Z,-23729.93
2023-03-28T23:07:52.816Z,-23730.31
2023-03-28T23:10:21.001Z,-23730.71
2023-03-28T23:12:50.174Z,-23730.93
2023-03-28T23:15:18.325Z,-23730.94
2023-03-28T23:17:46.848Z,-23730.46
2023-03-28T23:20:16.049Z,-23730.50
2023-03-28T23:22:46.213Z,-23730.56
2023-03-28T23:25:15.817Z,-23730.81
2023-03-28T23:27:44.222Z,-23731.03
2023-03-28T23:30:13.831Z,-23731.38
2023-03-28T23:32:43.140Z,-23731.63
2023-03-28T23:35:11.867Z,-23731.50
2023-03-28T23:37:40.465Z,-23731.72
2023-03-28T23:40:15.093Z,-23731.38
2023-03-28T23:42:44.760Z,-23731.22
2023-03-28T23:45:15.092Z,-23731.57
2023-03-28T23:47:44.052Z,-23731.51
2023-03-28T23:50:13.016Z,-23731.03
2023-03-28T23:52:41.902Z,-23730.88
2023-03-28T23:55:16.684Z,-23730.68
2023-03-28T23:57:46.813Z,-23730.43
